Time;durP1;ratioP1;P1;durP2;ratioP2;P2;SDS_P1;SDS_P2;PMS_P1;PMS_P2;Temp;Humidity;BMP_temperature;BMP_pressure;BME280_temperature;BME280_humidity;BME280_pressure;Samples;Min_cycle;Max_cycle;Signal;HPM_P1;HPM_P2
2022/09/01 00:00:07;;;;;;;41.03;21.70;;;;;;;13.64;100.00;95751.44;5093838;28;20042;-76
2022/09/01 00:02:55;;;;;;;34.45;20.45;;;;;;;13.56;100.00;95752.84;5090785;28;20044;-76
2022/09/01 00:05:21;;;;;;;37.03;19.60;;;;;;;13.57;100.00;95746.47;5093253;28;20048;-77
2022/09/01 00:07:48;;;;;;;33.65;19.80;;;;;;;13.64;100.00;95757.50;5092499;28;20040;-76
2022/09/01 00:10:13;;;;;;;36.67;20.40;;;;;;;13.60;100.00;95756.50;5087531;28;20455;-77
2022/09/01 00:12:39;;;;;;;36.88;20.83;;;;;;;13.52;100.00;95755.25;5087436;28;20040;-77
2022/09/01 00:15:07;;;;;;;36.20;20.77;;;;;;;13.52;100.00;95765.06;5092953;28;20413;-77
2022/09/01 00:17:33;;;;;;;44.97;21.30;;;;;;;13.36;100.00;95761.00;5092071;28;20068;-76
2022/09/01 00:19:59;;;;;;;42.20;22.33;;;;;;;13.38;100.00;95758.88;5089061;28;20067;-77
2022/09/01 00:22:25;;;;;;;42.05;23.13;;;;;;;13.34;100.00;95754.13;5083537;28;20085;-77
2022/09/01 00:24:50;;;;;;;47.20;23.88;;;;;;;13.38;100.00;95758.88;5082145;28;20074;-76
2022/09/01 00:27:16;;;;;;;51.03;25.13;;;;;;;13.37;100.00;95757.28;5087914;28;20641;-76
2022/09/01 00:29:42;;;;;;;45.65;23.95;;;;;;;13.41;100.00;95747.72;5093741;28;20040;-76
2022/09/01 00:32:07;;;;;;;47.13;24.13;;;;;;;13.24;100.00;95748.91;5098699;28;20044;-76
2022/09/01 00:34:33;;;;;;;50.13;25.20;;;;;;;13.34;100.00;95753.31;5094706;28;20053;-76
2022/09/01 00:36:59;;;;;;;53.15;25.20;;;;;;;13.33;100.00;95747.25;5099050;28;20054;-76
2022/09/01 00:39:25;;;;;;;52.35;26.67;;;;;;;13.39;100.00;95744.56;5088736;28;20192;-76
2022/09/01 00:41:50;;;;;;;56.60;27.13;;;;;;;13.34;100.00;95753.31;5095752;28;20042;-77
2022/09/01 00:44:22;;;;;;;62.10;28.95;;;;;;;13.37;100.00;95752.00;5092643;28;20046;-76
2022/09/01 00:46:49;;;;;;;59.97;26.88;;;;;;;13.34;100.00;95743.53;5096860;28;20047;-76
2022/09/01 00:49:15;;;;;;;57.58;27.95;;;;;;;13.38;100.00;95743.00;5092888;28;20051;-76
2022/09/01 00:51:44;;;;;;;58.45;26.98;;;;;;;13.33;100.00;95747.25;5091027;28;20771;-76
2022/09/01 00:54:13;;;;;;;59.90;27.60;;;;;;;13.29;100.00;95735.66;5095748;28;20048;-76
2022/09/01 00:56:41;;;;;;;58.25;26.88;;;;;;;13.33;100.00;95741.97;5092218;28;20040;-77
2022/09/01 00:59:09;;;;;;;57.63;27.27;;;;;;;13.32;100.00;95740.38;5097798;27;20460;-77
2022/09/01 01:01:35;;;;;;;56.10;27.05;;;;;;;13.37;100.00;95736.16;5093371;28;20052;-77
2022/09/01 01:04:05;;;;;;;56.47;26.67;;;;;;;13.25;100.00;95739.94;5099280;28;20185;-77
2022/09/01 01:06:32;;;;;;;56.92;26.85;;;;;;;13.25;100.00;95742.56;5090678;28;20036;-76
2022/09/01 01:08:59;;;;;;;60.40;27.75;;;;;;;13.26;100.00;95730.94;5097680;28;20044;-76
2022/09/01 01:11:31;;;;;;;55.50;26.50;;;;;;;13.26;100.00;95736.22;5107871;28;20058;-76
2022/09/01 01:14:11;;;;;;;59.05;27.48;;;;;;;13.26;100.00;95741.50;5091634;28;20044;-76
2022/09/01 01:16:42;;;;;;;53.00;27.10;;;;;;;13.18;100.00;95734.19;5091689;28;20036;-76
2022/09/01 01:23:01;;;;;;;55.20;28.13;;;;;;;13.26;100.00;95746.78;5095083;28;20036;-76
2022/09/01 01:24:54;;;;;;;57.35;26.75;;;;;;;13.24;100.00;95738.34;5085697;28;20037;-76
2022/09/01 01:27:20;;;;;;;59.00;27.20;;;;;;;13.19;100.00;95735.78;5096335;28;20051;-77
2022/09/01 01:29:46;;;;;;;68.18;29.33;;;;;;;13.30;100.00;95731.16;5089298;28;20048;-76
2022/09/01 01:32:12;;;;;;;59.65;28.33;;;;;;;13.19;100.00;95727.84;5095069;28;20048;-76
2022/09/01 01:34:41;;;;;;;66.55;28.55;;;;;;;13.25;100.00;95728.59;5098556;28;20036;-76
2022/09/01 01:37:09;;;;;;;67.70;29.02;;;;;;;13.32;100.00;95729.81;5092985;28;20047;-77
2022/09/01 01:39:39;;;;;;;68.88;29.45;;;;;;;13.21;100.00;95723.06;5087780;28;20084;-77
2022/09/01 01:42:08;;;;;;;65.32;27.55;;;;;;;13.28;100.00;95723.50;5086925;28;20525;-77
2022/09/01 01:44:36;;;;;;;66.68;28.20;;;;;;;13.37;100.00;95729.00;5088535;28;20044;-77
2022/09/01 01:47:08;;;;;;;59.13;27.90;;;;;;;13.28;100.00;95723.50;5095525;28;20420;-77
2022/09/01 01:49:35;;;;;;;64.72;28.92;;;;;;;13.23;100.00;95723.56;5093410;28;20032;-77
2022/09/01 01:52:01;;;;;;;58.40;28.33;;;;;;;13.34;100.00;95727.69;5102133;28;20039;-77
2022/09/01 01:54:31;;;;;;;53.45;26.77;;;;;;;13.37;100.00;95736.16;5089988;28;20110;-77
2022/09/01 01:56:58;;;;;;;54.55;24.33;;;;;;;13.36;100.00;95723.97;5100199;28;20040;-77
2022/09/01 01:59:25;;;;;;;51.38;25.27;;;;;;;13.39;100.00;95728.72;5087501;28;20513;-77
2022/09/01 02:01:51;;;;;;;45.75;23.55;;;;;;;13.25;100.00;95718.78;5094916;28;20035;-77
2022/09/01 02:04:19;;;;;;;55.33;26.70;;;;;;;13.21;100.00;95723.06;5100872;28;20036;-77
2022/09/01 02:06:46;;;;;;;49.08;24.88;;;;;;;13.11;100.00;95728.44;5091038;28;20112;-77
2022/09/01 02:09:15;;;;;;;46.95;22.73;;;;;;;13.32;100.00;95719.22;5089467;28;20036;-77
2022/09/01 02:11:41;;;;;;;51.05;22.98;;;;;;;13.14;100.00;95717.31;5091469;28;20036;-77
2022/09/01 02:14:08;;;;;;;47.40;24.27;;;;;;;13.20;100.00;95726.75;5093865;28;20100;-77
2022/09/01 02:16:35;;;;;;;46.72;24.02;;;;;;;13.11;100.00;95718.66;5090490;28;20043;-77
2022/09/01 02:19:02;;;;;;;49.47;24.60;;;;;;;13.25;100.00;95724.06;5090989;28;20039;-77
2022/09/01 02:21:28;;;;;;;42.75;22.55;;;;;;;13.38;100.00;95721.88;5082408;28;20444;-77
2022/09/01 02:24:00;;;;;;;48.33;23.52;;;;;;;13.16;100.00;95717.84;5112234;27;20044;-77
2022/09/01 02:26:32;;;;;;;48.63;23.65;;;;;;;13.27;100.00;95724.56;5089867;28;20055;-77
2022/09/01 02:29:03;;;;;;;49.47;23.52;;;;;;;13.25;100.00;95724.06;5090917;28;20499;-77
2022/09/01 02:31:34;;;;;;;41.03;22.15;;;;;;;13.36;100.00;95726.63;5091662;28;20032;-77
2022/09/01 02:33:59;;;;;;;42.17;22.92;;;;;;;13.13;100.00;95726.31;5094810;28;20040;-77
2022/09/01 02:36:25;;;;;;;45.33;22.52;;;;;;;13.03;100.00;95731.69;5093240;28;20039;-76
2022/09/01 02:38:52;;;;;;;49.03;24.23;;;;;;;12.96;100.00;95727.53;5093454;28;20044;-77
2022/09/01 02:41:19;;;;;;;47.97;24.50;;;;;;;12.91;100.00;95724.16;5087916;28;20384;-77
2022/09/01 02:43:45;;;;;;;46.03;23.25;;;;;;;12.83;100.00;95726.31;5088463;28;20036;-77
2022/09/01 02:46:12;;;;;;;48.85;24.42;;;;;;;12.83;100.00;95722.91;5089552;28;20047;-77
2022/09/01 02:48:40;;;;;;;48.97;24.40;;;;;;;12.77;100.00;95730.09;5090254;28;20040;-76
2022/09/01 02:51:12;;;;;;;49.28;23.63;;;;;;;12.69;100.00;95732.53;5086300;28;20087;-76
2022/09/01 02:53:41;;;;;;;50.17;23.50;;;;;;;12.68;100.00;95736.22;5093424;28;20036;-76
2022/09/01 02:56:10;;;;;;;47.08;23.88;;;;;;;12.71;100.00;95720.59;5096921;28;20119;-76
2022/09/01 02:58:45;;;;;;;48.08;24.05;;;;;;;12.67;100.00;95729.38;5086814;28;20032;-76
2022/09/01 03:01:19;;;;;;;42.08;21.92;;;;;;;12.77;100.00;95731.91;5087926;28;20040;-76
2022/09/01 03:03:46;;;;;;;43.67;21.00;;;;;;;12.69;100.00;95727.25;5092320;28;20044;-77
2022/09/01 03:06:13;;;;;;;39.10;20.20;;;;;;;12.65;100.00;95725.16;5082872;28;20075;-76
2022/09/01 03:08:39;;;;;;;34.10;19.52;;;;;;;12.69;100.00;95721.97;5084308;28;20032;-77
2022/09/01 03:11:09;;;;;;;37.85;20.70;;;;;;;12.56;100.00;95718.91;5089487;28;20089;-77
2022/09/01 03:13:38;;;;;;;38.08;21.38;;;;;;;12.38;100.00;95722.97;5095932;28;20059;-77
2022/09/01 03:16:08;;;;;;;42.95;21.80;;;;;;;12.34;100.00;95721.16;5088825;28;20501;-77
2022/09/01 03:18:34;;;;;;;40.25;21.38;;;;;;;12.36;100.00;95713.78;5086618;28;20112;-77
2022/09/01 03:21:01;;;;;;;41.67;22.63;;;;;;;12.36;100.00;95713.78;5087589;28;20044;-76
2022/09/01 03:23:30;;;;;;;40.67;20.05;;;;;;;12.36;100.00;95713.78;5085808;28;20044;-76
2022/09/01 03:25:56;;;;;;;37.58;20.35;;;;;;;12.38;100.00;95716.91;5089263;28;20506;-77
2022/09/01 03:28:22;;;;;;;38.00;20.27;;;;;;;12.40;100.00;95712.16;5089523;28;20044;-77
2022/09/01 03:30:53;;;;;;;36.03;19.50;;;;;;;12.30;100.00;95703.25;5088382;28;20036;-77
2022/09/01 03:33:20;;;;;;;34.83;19.85;;;;;;;12.35;100.00;95712.19;5093286;28;20044;-77
2022/09/01 03:35:47;;;;;;;36.22;18.92;;;;;;;12.27;100.00;95701.16;5096587;28;20044;-77
2022/09/01 03:38:19;;;;;;;36.20;19.58;;;;;;;12.29;100.00;95706.94;5090044;28;20223;-77
2022/09/01 03:40:46;;;;;;;38.83;20.33;;;;;;;12.27;100.00;95706.44;5078055;28;20046;-77
2022/09/01 03:43:12;;;;;;;38.80;20.55;;;;;;;12.22;100.00;95697.78;5088638;28;20047;-77
2022/09/01 03:45:39;;;;;;;40.55;21.20;;;;;;;12.36;100.00;95703.22;5095309;28;20040;-77
2022/09/01 03:48:07;;;;;;;39.92;20.27;;;;;;;12.36;100.00;95703.22;5099536;28;20047;-77
2022/09/01 03:50:44;;;;;;;45.35;22.08;;;;;;;12.21;100.00;95701.47;5091788;28;20036;-76
2022/09/01 03:53:11;;;;;;;43.72;22.77;;;;;;;12.29;100.00;95698.25;5087009;28;20069;-77
2022/09/01 03:55:38;;;;;;;42.50;21.60;;;;;;;12.35;100.00;95691.09;5092083;28;20071;-77
2022/09/01 03:58:08;;;;;;;40.58;21.05;;;;;;;12.40;100.00;95693.69;5097884;28;20044;-76
2022/09/01 04:00:38;;;;;;;38.00;20.88;;;;;;;12.40;100.00;95693.69;5090022;28;20036;-76
2022/09/01 04:03:06;;;;;;;41.72;22.20;;;;;;;12.36;100.00;95692.66;5083418;28;20032;-76
2022/09/01 04:05:36;;;;;;;38.70;20.98;;;;;;;12.43;100.00;95693.16;5092390;28;20118;-76
2022/09/01 04:08:05;;;;;;;41.42;21.25;;;;;;;12.41;100.00;95684.69;5091192;28;20051;-76
2022/09/01 04:10:34;;;;;;;37.53;20.48;;;;;;;12.37;100.00;95694.22;5094070;28;20036;-77
2022/09/01 04:13:01;;;;;;;39.95;20.83;;;;;;;12.35;100.00;95691.09;5088494;28;20047;-77
2022/09/01 04:15:28;;;;;;;42.55;21.77;;;;;;;12.38;100.00;95695.81;5086494;28;20036;-76
2022/09/01 04:18:08;;;;;;;41.50;21.25;;;;;;;12.40;100.00;95693.69;5089704;28;20032;-76
2022/09/01 04:20:46;;;;;;;35.08;19.55;;;;;;;12.37;100.00;95688.94;5091274;28;20036;-76
2022/09/01 04:23:20;;;;;;;38.60;20.08;;;;;;;12.29;100.00;95687.69;5091399;28;20043;-76
2022/09/01 04:25:49;;;;;;;43.25;21.27;;;;;;;12.26;100.00;95683.75;5090402;28;20043;-77
2022/09/01 04:28:21;;;;;;;38.40;21.02;;;;;;;12.19;100.00;95688.56;5104003;28;20040;-76
2022/09/01 04:30:49;;;;;;;36.53;19.38;;;;;;;12.25;100.00;95690.09;5096090;28;20105;-76
2022/09/01 04:33:16;;;;;;;35.80;19.95;;;;;;;12.18;100.00;95692.25;5091680;28;20044;-76
2022/09/01 04:35:42;;;;;;;39.38;21.13;;;;;;;12.03;100.00;95689.72;5094870;28;20047;-76
2022/09/01 04:38:07;;;;;;;40.22;20.85;;;;;;;12.03;100.00;95689.72;5091516;28;20039;-76
2022/09/01 04:40:38;;;;;;;38.50;21.27;;;;;;;11.90;100.00;95694.50;5086829;28;20040;-76
2022/09/01 04:43:05;;;;;;;37.63;20.92;;;;;;;11.91;100.00;95693.47;5091987;28;20036;-77
2022/09/01 04:45:35;;;;;;;37.63;19.77;;;;;;;11.94;100.00;95690.31;5098171;28;20036;-77
2022/09/01 04:48:04;;;;;;;37.83;20.25;;;;;;;11.90;100.00;95702.41;5099445;28;20047;-76
2022/09/01 04:50:31;;;;;;;41.47;20.17;;;;;;;11.91;100.00;95687.38;5088293;28;20066;-77
2022/09/01 04:53:01;;;;;;;34.72;19.17;;;;;;;11.95;100.00;95691.88;5090226;28;20557;-77
2022/09/01 04:55:28;;;;;;;37.22;19.65;;;;;;;12.02;100.00;95698.69;5095740;28;20044;-76
2022/09/01 04:57:56;;;;;;;36.95;20.48;;;;;;;11.98;100.00;95702.94;5100828;28;20182;-77
2022/09/01 05:00:24;;;;;;;39.58;20.70;;;;;;;11.91;100.00;95696.09;5089297;28;20078;-77
2022/09/01 05:02:52;;;;;;;37.95;20.77;;;;;;;11.98;100.00;95697.66;5099799;28;20118;-77
2022/09/01 05:05:20;;;;;;;41.80;21.92;;;;;;;12.02;100.00;95698.69;5084502;28;20044;-77
2022/09/01 05:07:51;;;;;;;41.35;22.30;;;;;;;11.95;100.00;95699.81;5092377;28;20044;-77
2022/09/01 05:10:17;;;;;;;42.33;21.63;;;;;;;12.00;100.00;95695.56;5091706;28;20055;-76
2022/09/01 05:12:44;;;;;;;41.95;22.35;;;;;;;11.98;100.00;95698.44;5096231;28;20505;-76
2022/09/01 05:15:12;;;;;;;44.03;22.02;;;;;;;12.08;100.00;95703.69;5100223;28;20036;-76
2022/09/01 05:17:38;;;;;;;48.30;23.83;;;;;;;12.06;100.00;95699.72;5083286;28;20032;-76
2022/09/01 05:20:06;;;;;;;42.75;22.70;;;;;;;12.14;100.00;95712.34;5095129;28;20036;-76
2022/09/01 05:22:32;;;;;;;45.92;22.85;;;;;;;12.23;100.00;95710.69;5089737;28;20131;-76
2022/09/01 05:25:10;;;;;;;41.28;22.42;;;;;;;12.13;100.00;95710.75;5096639;28;20111;-76
2022/09/01 05:27:38;;;;;;;46.08;23.02;;;;;;;12.20;100.00;95705.97;5089115;28;20497;-76
2022/09/01 05:30:07;;;;;;;46.38;23.10;;;;;;;12.30;100.00;95707.75;5088168;28;20044;-76
2022/09/01 05:32:38;;;;;;;47.03;23.08;;;;;;;12.35;100.00;95701.63;5094650;28;20114;-76
2022/09/01 05:35:07;;;;;;;44.55;23.58;;;;;;;12.35;100.00;95701.63;5097428;28;20497;-76
2022/09/01 05:37:36;;;;;;;47.60;23.33;;;;;;;12.41;100.00;95689.97;5089010;28;20493;-76
2022/09/01 05:40:08;;;;;;;44.55;22.60;;;;;;;12.45;100.00;95701.56;5085733;28;20044;-76
2022/09/01 05:42:36;;;;;;;36.03;20.33;;;;;;;12.50;100.00;95698.88;5095622;28;20046;-76
2022/09/01 05:45:03;;;;;;;40.53;20.63;;;;;;;12.54;100.00;95699.91;5095276;28;20048;-76
2022/09/01 05:47:28;;;;;;;39.83;19.92;;;;;;;12.41;100.00;95705.81;5094135;28;20527;-76
2022/09/01 05:49:57;;;;;;;39.45;20.50;;;;;;;12.53;100.00;95711.53;5089955;28;20040;-76
2022/09/01 05:52:25;;;;;;;38.22;19.52;;;;;;;12.63;100.00;95703.53;5091736;28;20085;-76
2022/09/01 05:54:51;;;;;;;30.23;16.20;;;;;;;12.58;100.00;95706.19;5083023;28;20089;-76
2022/09/01 05:57:18;;;;;;;33.65;17.63;;;;;;;12.56;100.00;95697.78;5096820;28;20044;-76
2022/09/01 05:59:52;;;;;;;35.25;17.42;;;;;;;12.60;100.00;95706.72;5089716;28;20040;-76
2022/09/01 06:02:20;;;;;;;35.30;16.95;;;;;;;12.62;100.00;95707.22;5092116;28;20036;-77
2022/09/01 06:04:47;;;;;;;35.35;18.38;;;;;;;12.61;100.00;95705.66;5093849;28;20538;-77
2022/09/01 06:07:16;;;;;;;36.03;18.35;;;;;;;12.60;100.00;95704.09;5097915;28;20312;-77
2022/09/01 06:09:47;;;;;;;35.53;18.17;;;;;;;12.60;100.00;95709.38;5093203;28;20045;-77
2022/09/01 06:12:20;;;;;;;41.42;19.80;;;;;;;12.79;100.00;95703.41;5087868;28;20037;-76
2022/09/01 06:14:47;;;;;;;40.40;18.57;;;;;;;12.71;100.00;95706.63;5097445;28;20040;-77
2022/09/01 06:17:15;;;;;;;37.45;18.67;;;;;;;12.88;100.00;95709.63;5091982;28;20064;-77
2022/09/01 06:19:41;;;;;;;36.88;18.17;;;;;;;12.97;100.00;95713.25;5090331;28;20054;-77
2022/09/01 06:22:09;;;;;;;32.65;16.55;;;;;;;12.97;100.00;95707.97;5099036;28;20049;-77
2022/09/01 06:24:39;;;;;;;30.23;15.65;;;;;;;12.90;100.00;95710.16;5091023;28;20036;-77
2022/09/01 06:27:08;;;;;;;34.35;16.80;;;;;;;13.06;100.00;95710.00;5097392;28;20047;-76
2022/09/01 06:29:38;;;;;;;34.63;17.20;;;;;;;13.07;100.00;95716.84;5090242;28;20386;-76
2022/09/01 06:32:08;;;;;;;37.67;17.42;;;;;;;13.04;100.00;95707.63;5093129;28;20044;-77
2022/09/01 06:34:34;;;;;;;32.47;16.75;;;;;;;13.17;100.00;95711.47;5090250;28;20066;-77
2022/09/01 06:37:00;;;;;;;31.65;15.88;;;;;;;13.16;100.00;95715.19;5085109;28;20048;-76
2022/09/01 06:39:26;;;;;;;33.25;16.58;;;;;;;13.15;100.00;95711.75;5081363;28;20051;-76
2022/09/01 06:41:54;;;;;;;32.70;15.82;;;;;;;13.16;100.00;95709.91;5088009;28;20100;-77
2022/09/01 06:44:23;;;;;;;28.45;15.82;;;;;;;13.36;100.00;95716.06;5088970;28;20048;-77
2022/09/01 06:46:50;;;;;;;30.30;15.65;;;;;;;13.42;100.00;95717.56;5084715;28;20048;-76
2022/09/01 06:49:16;;;;;;;30.40;15.52;;;;;;;13.44;100.00;95712.81;5088160;28;20039;-76
2022/09/01 06:51:41;;;;;;;27.08;15.27;;;;;;;13.50;100.00;95719.59;5082793;28;20044;-76
2022/09/01 06:54:07;;;;;;;29.48;15.30;;;;;;;13.54;100.00;95717.97;5085311;28;20501;-77
2022/09/01 06:56:33;;;;;;;22.20;12.73;;;;;;;13.42;100.00;95722.84;5088754;28;20036;-75
2022/09/01 06:59:04;;;;;;;26.30;13.95;;;;;;;13.41;100.00;95726.59;5084770;28;20394;-76
2022/09/01 07:01:30;;;;;;;23.63;12.25;;;;;;;13.45;100.00;95728.38;5086136;28;20472;-77
2022/09/01 07:03:56;;;;;;;24.48;14.02;;;;;;;13.54;100.00;95735.69;5089194;28;20061;-76
2022/09/01 07:06:30;;;;;;;27.73;14.23;;;;;;;13.47;100.00;95736.03;5084266;28;20044;-76
2022/09/01 07:08:57;;;;;;;26.42;14.05;;;;;;;13.32;100.00;95744.88;5083166;28;20116;-76
2022/09/01 07:11:32;;;;;;;25.48;14.25;;;;;;;13.55;100.00;95738.06;5086051;28;20035;-77
2022/09/01 07:14:02;;;;;;;21.13;13.15;;;;;;;13.50;100.00;95740.75;5082140;28;20040;-78
2022/09/01 07:16:29;;;;;;;24.35;14.13;;;;;;;13.50;100.00;95746.03;5079964;28;20115;-77
2022/09/01 07:18:59;;;;;;;22.10;13.20;;;;;;;13.56;100.00;95755.50;5087765;28;20044;-77
2022/09/01 07:21:26;;;;;;;27.23;14.00;;;;;;;13.64;100.00;95757.50;5088932;28;20090;-77
2022/09/01 07:23:52;;;;;;;26.48;13.75;;;;;;;13.65;100.00;95750.38;5085388;28;20039;-76
2022/09/01 07:26:18;;;;;;;22.67;13.80;;;;;;;13.73;100.00;95754.25;5081846;28;20113;-78
2022/09/01 07:28:46;;;;;;;23.02;13.63;;;;;;;13.76;100.00;95753.66;5091792;28;20067;-76
2022/09/01 07:31:19;;;;;;;23.35;13.50;;;;;;;13.78;100.00;95759.47;5087573;28;20040;-77
2022/09/01 07:33:47;;;;;;;21.48;13.30;;;;;;;13.83;100.00;95756.75;5091585;28;20489;-76
2022/09/01 07:36:14;;;;;;;19.30;12.93;;;;;;;13.97;100.00;95755.00;5094335;28;20493;-76
2022/09/01 07:38:41;;;;;;;20.60;13.93;;;;;;;14.02;100.00;95760.22;5098219;28;20051;-75
2022/09/01 07:41:11;;;;;;;19.90;12.13;;;;;;;14.04;100.00;95765.22;5092007;28;20047;-76
2022/09/01 07:43:38;;;;;;;18.52;12.02;;;;;;;14.04;100.00;95760.72;5091766;28;20097;-76
2022/09/01 07:46:05;;;;;;;19.95;12.30;;;;;;;14.00;100.00;95761.56;5097102;28;20460;-76
2022/09/01 07:48:31;;;;;;;19.50;12.18;;;;;;;14.09;100.00;95753.78;5085206;28;20090;-76
2022/09/01 07:50:56;;;;;;;18.75;12.35;;;;;;;14.18;100.00;95760.03;5081025;28;20048;-76
2022/09/01 07:53:26;;;;;;;15.75;11.02;;;;;;;14.28;100.00;95757.22;5087486;28;20089;-75
2022/09/01 07:55:54;;;;;;;17.85;11.85;;;;;;;14.22;100.00;95761.00;5092137;28;20044;-76
2022/09/01 07:58:24;;;;;;;15.95;11.00;;;;;;;14.36;100.00;95779.63;5086227;28;20084;-74
2022/09/01 08:00:52;;;;;;;18.75;11.15;;;;;;;14.34;100.00;95769.31;5084338;28;20097;-75
2022/09/01 08:03:19;;;;;;;16.77;11.27;;;;;;;14.27;100.00;95768.88;5086185;28;20064;-77
2022/09/01 08:05:46;;;;;;;18.88;12.07;;;;;;;14.29;100.00;95772.03;5089735;28;20044;-76
2022/09/01 08:08:12;;;;;;;18.73;11.07;;;;;;;14.41;100.00;95773.47;5082024;28;20170;-76
2022/09/01 08:10:39;;;;;;;20.42;12.18;;;;;;;14.34;100.00;95773.84;5085882;28;20075;-76
2022/09/01 08:13:06;;;;;;;18.42;12.00;;;;;;;14.37;100.00;95763.44;5085959;28;20558;-76
2022/09/01 08:15:31;;;;;;;16.90;11.98;;;;;;;14.52;100.00;95759.00;5089794;28;20121;-76
2022/09/01 08:17:57;;;;;;;18.63;12.05;;;;;;;14.64;100.00;95764.69;5087789;28;20051;-76
2022/09/01 08:20:22;;;;;;;20.00;11.63;;;;;;;14.87;100.00;95770.16;5088719;28;20044;-77
2022/09/01 08:22:48;;;;;;;17.25;11.60;;;;;;;14.85;100.00;95777.59;5091935;28;20073;-76
2022/09/01 08:25:15;;;;;;;17.35;11.52;;;;;;;14.82;100.00;95789.53;5100004;28;20055;-76
2022/09/01 08:27:40;;;;;;;21.27;11.65;;;;;;;14.97;100.00;95785.88;5086174;28;20032;-76
2022/09/01 08:30:09;;;;;;;17.38;11.10;;;;;;;15.19;100.00;95781.81;5102000;28;20040;-76
2022/09/01 08:32:36;;;;;;;16.70;11.45;;;;;;;15.14;100.00;95784.53;5085242;28;20040;-79
2022/09/01 08:35:03;;;;;;;17.05;11.32;;;;;;;15.33;100.00;95787.94;5086553;28;20048;-79
2022/09/01 08:37:29;;;;;;;15.75;10.13;;;;;;;15.50;100.00;95784.72;5091389;28;20066;-77
2022/09/01 08:39:55;;;;;;;17.00;9.63;;;;;;;15.68;100.00;95790.97;5086533;28;20052;-78
2022/09/01 08:42:57;;;;;;;21.65;9.98;;;;;;;15.63;100.00;95791.09;5088783;28;20039;-76
2022/09/01 08:45:38;;;;;;;12.85;8.27;;;;;;;15.64;100.00;95797.94;5060856;28;20068;-77
2022/09/01 08:48:38;;;;;;;12.70;9.02;;;;;;;15.95;100.00;95792.09;5087645;28;20490;-76
2022/09/01 08:51:23;;;;;;;12.57;9.10;;;;;;;15.60;100.00;95791.66;5086920;28;20079;-76
2022/09/01 08:53:54;;;;;;;12.98;9.00;;;;;;;15.70;100.00;95796.00;5089830;28;20043;-76
2022/09/01 08:56:21;;;;;;;12.70;8.77;;;;;;;15.69;100.00;95800.53;5088791;28;20072;-76
2022/09/01 08:58:47;;;;;;;13.70;9.75;;;;;;;15.57;100.00;95797.56;5084301;28;20040;-76
2022/09/01 09:01:26;;;;;;;14.10;9.05;;;;;;;15.78;100.00;95795.31;5087859;28;20563;-75
2022/09/01 09:04:19;;;;;;;11.55;8.60;;;;;;;15.75;100.00;95794.03;5095228;28;20067;-76
2022/09/01 09:07:12;;;;;;;11.93;8.38;;;;;;;15.76;100.00;95792.97;5091107;28;20044;-78
2022/09/01 09:09:58;;;;;;;10.82;7.95;;;;;;;16.09;100.00;95800.81;5085915;28;20421;-76
2022/09/01 09:12:42;;;;;;;11.63;8.13;;;;;;;16.14;100.00;95786.66;5087459;28;20490;-75
2022/09/01 09:15:26;;;;;;;11.47;8.17;;;;;;;16.27;100.00;95793.03;5092579;28;20702;-76
2022/09/01 09:17:58;;;;;;;12.02;8.13;;;;;;;16.32;100.00;95795.59;5088430;28;20067;-75
2022/09/01 09:20:26;;;;;;;10.68;7.88;;;;;;;16.26;100.00;95786.13;5094215;28;20043;-75
2022/09/01 09:22:53;;;;;;;12.10;7.15;;;;;;;16.47;100.00;95775.09;5089690;28;20075;-76
2022/09/01 09:25:19;;;;;;;9.48;7.55;;;;;;;16.46;100.00;95779.59;5100116;28;20044;-76
2022/09/01 09:27:47;;;;;;;10.68;8.30;;;;;;;16.48;100.00;95788.06;5094722;28;20050;-77
2022/09/01 09:30:23;;;;;;;10.77;8.00;;;;;;;16.28;100.00;95783.97;5083701;28;20047;-75
2022/09/01 09:33:02;;;;;;;8.95;7.38;;;;;;;16.63;100.00;95785.03;5088009;28;20576;-75
2022/09/01 09:35:33;;;;;;;9.90;7.40;;;;;;;16.47;100.00;95785.72;5085498;28;20043;-76
2022/09/01 09:38:22;;;;;;;10.35;7.45;;;;;;;16.59;100.00;95788.59;5094205;28;20032;-77
2022/09/01 09:40:58;;;;;;;12.35;8.52;;;;;;;16.44;100.00;95782.56;5090921;28;20043;-79
2022/09/01 09:43:24;;;;;;;9.73;7.35;;;;;;;16.41;100.00;95777.84;5087504;28;20444;-78
2022/09/01 09:45:49;;;;;;;10.15;7.55;;;;;;;16.43;100.00;95781.00;5089123;28;20048;-78
2022/09/01 09:48:31;;;;;;;13.93;8.52;;;;;;;16.83;100.00;95776.91;5087884;28;20044;-77
2022/09/01 09:51:16;;;;;;;13.15;8.85;;;;;;;16.76;100.00;95778.09;5083859;28;20678;-77
2022/09/01 09:53:41;;;;;;;11.48;8.40;;;;;;;16.68;100.00;95770.88;5088964;28;20143;-78
2022/09/01 09:56:19;;;;;;;10.85;8.13;;;;;;;16.94;100.00;95772.94;5089666;28;20043;-78
2022/09/01 09:58:46;;;;;;;12.82;8.25;;;;;;;16.80;100.00;95772.97;5086476;28;20086;-75
2022/09/01 10:01:21;;;;;;;8.55;6.53;;;;;;;16.97;100.00;95772.34;5083050;28;20079;-76
2022/09/01 10:03:52;;;;;;;11.65;7.07;;;;;;;16.82;100.00;95776.09;5091298;28;20040;-75
2022/09/01 10:06:33;;;;;;;9.50;7.32;;;;;;;17.16;100.00;95776.66;5084998;28;20048;-75
2022/09/01 10:09:01;;;;;;;9.88;7.40;;;;;;;16.83;100.00;95766.28;5076528;28;20098;-76
2022/09/01 10:11:37;;;;;;;13.00;7.55;;;;;;;16.97;100.00;95772.34;5089374;28;20040;-75
2022/09/01 10:14:30;;;;;;;12.82;7.03;;;;;;;17.84;100.00;95761.28;5082552;28;20063;-75
2022/09/01 10:17:08;;;;;;;9.30;6.95;;;;;;;18.61;100.00;95760.94;5108475;28;20066;-75
2022/09/01 10:19:39;;;;;;;10.60;5.65;;;;;;;18.52;100.00;95760.94;5111179;28;20090;-76
2022/09/01 10:22:04;;;;;;;10.60;5.55;;;;;;;18.52;95.18;95759.03;5089753;28;20501;-76
2022/09/01 10:24:37;;;;;;;8.65;5.95;;;;;;;17.73;100.00;95766.13;5101304;28;20088;-76
2022/09/01 10:27:25;;;;;;;7.93;5.97;;;;;;;18.64;100.00;95758.41;5104384;27;20050;-77
2022/09/01 10:30:01;;;;;;;8.10;5.68;;;;;;;19.02;97.11;95748.97;5087375;28;20454;-76
2022/09/01 10:32:32;;;;;;;8.10;5.85;;;;;;;19.07;97.01;95759.47;5099412;28;20124;-76
2022/09/01 10:34:59;;;;;;;14.98;6.47;;;;;;;19.34;91.47;95760.19;5103754;28;20040;-76
2022/09/01 10:37:25;;;;;;;9.02;5.95;;;;;;;18.32;100.00;95759.69;5107304;28;20063;-77
2022/09/01 10:40:09;;;;;;;9.20;6.00;;;;;;;19.44;99.48;95759.84;5091400;27;20075;-76
2022/09/01 10:42:35;;;;;;;7.90;5.30;;;;;;;19.60;98.98;95761.97;5096846;28;20391;-76
2022/09/01 10:45:01;;;;;;;6.78;4.90;;;;;;;19.85;91.01;95758.41;5080517;28;20047;-77
2022/09/01 10:47:36;;;;;;;8.13;5.20;;;;;;;18.96;91.15;95760.91;5088021;28;20497;-79
2022/09/01 10:50:20;;;;;;;9.13;5.03;;;;;;;19.31;88.99;95760.81;5088645;28;20070;-76
2022/09/01 10:52:46;;;;;;;11.25;5.25;;;;;;;19.19;94.36;95759.59;5085933;28;20047;-77
2022/09/01 10:55:19;;;;;;;7.75;5.50;;;;;;;19.27;97.28;95759.91;5078196;28;20036;-77
2022/09/01 10:58:24;;;;;;;8.18;6.03;;;;;;;18.36;90.70;95752.63;5077798;28;20089;-76
2022/09/01 11:00:52;;;;;;;9.45;6.32;;;;;;;18.60;93.37;95748.69;5084229;28;20101;-76
2022/09/01 11:03:17;;;;;;;7.57;6.15;;;;;;;19.64;89.20;95746.84;5086891;28;20036;-76
2022/09/01 11:05:52;;;;;;;8.30;5.88;;;;;;;18.67;94.51;95754.34;5086631;28;20047;-76
2022/09/01 11:08:28;;;;;;;7.78;5.35;;;;;;;19.02;96.17;95748.97;5086759;28;20062;-76
2022/09/01 11:11:04;;;;;;;8.98;5.88;;;;;;;20.26;88.63;95750.78;5086547;28;20144;-77
2022/09/01 11:13:55;;;;;;;7.97;5.57;;;;;;;20.00;84.75;95748.28;5085225;28;20051;-76
2022/09/01 11:16:37;;;;;;;9.85;5.68;;;;;;;20.05;83.52;95750.75;5082546;28;20047;-76
2022/09/01 11:19:21;;;;;;;8.80;5.30;;;;;;;20.21;85.36;95749.09;5087545;28;20040;-77
2022/09/01 11:22:01;;;;;;;7.97;5.20;;;;;;;19.19;90.99;95738.28;5087613;28;20044;-75
2022/09/01 11:24:40;;;;;;;9.57;4.85;;;;;;;19.74;90.98;95746.53;5084653;28;20047;-75
2022/09/01 11:27:07;;;;;;;6.90;5.05;;;;;;;19.52;83.38;95734.22;5098963;28;20063;-75